Time;durP1;ratioP1;P1;durP2;ratioP2;P2;SDS_P1;SDS_P2;PMS_P1;PMS_P2;Temp;Humidity;BMP_temperature;BMP_pressure;BME280_temperature;BME280_humidity;BME280_pressure;Samples;Min_cycle;Max_cycle;Signal;HPM_P1;HPM_P2
2022/07/14 00:01:02;;;;;;;;;;;20.80;77.50;;;;;;4976875;28;19955;-96
2022/07/14 00:03:28;;;;;;;;;;;20.80;77.00;;;;;;4976831;28;20413;-95
2022/07/14 00:05:54;;;;;;;;;;;20.70;76.90;;;;;;4976831;28;19941;-95
2022/07/14 00:08:19;;;;;;;;;;;20.60;77.30;;;;;;4976764;28;19951;-96
2022/07/14 00:10:45;;;;;;;;;;;20.60;77.90;;;;;;4976962;28;19943;-96
2022/07/14 00:13:10;;;;;;;;;;;20.60;77.20;;;;;;4976603;28;20078;-96
2022/07/14 00:15:36;;;;;;;;;;;20.70;78.10;;;;;;4976602;28;19944;-96
2022/07/14 00:18:02;;;;;;;;;;;20.70;77.90;;;;;;4976241;28;19943;-95
2022/07/14 00:20:28;;;;;;;;;;;20.60;77.70;;;;;;4976553;28;19946;-95
2022/07/14 00:22:56;;;;;;;;;;;20.60;78.20;;;;;;4976359;28;20062;-96
2022/07/14 00:25:22;;;;;;;;;;;20.50;78.40;;;;;;4976693;28;19944;-95
2022/07/14 00:27:48;;;;;;;;;;;20.50;78.80;;;;;;4976112;28;19944;-95
2022/07/14 00:30:13;;;;;;;;;;;20.50;79.00;;;;;;4976310;28;20344;-96
2022/07/14 00:32:39;;;;;;;;;;;20.60;79.30;;;;;;4976281;28;19938;-96
2022/07/14 00:35:05;;;;;;;;;;;20.50;79.20;;;;;;4976554;28;19945;-96
2022/07/14 00:37:31;;;;;;;;;;;20.30;79.10;;;;;;4975875;28;20365;-95
2022/07/14 00:39:56;;;;;;;;;;;20.30;79.10;;;;;;4976146;28;19940;-96
2022/07/14 00:42:28;;;;;;;;;;;20.30;79.90;;;;;;4975855;28;20057;-96
2022/07/14 00:44:54;;;;;;;;;;;20.30;79.50;;;;;;4976141;28;19945;-96
2022/07/14 00:47:19;;;;;;;;;;;20.30;79.50;;;;;;4975813;28;19942;-95
2022/07/14 00:49:45;;;;;;;;;;;20.30;79.70;;;;;;4976042;28;20409;-95
2022/07/14 00:52:11;;;;;;;;;;;20.30;79.80;;;;;;4975730;28;20407;-95
2022/07/14 00:54:36;;;;;;;;;;;20.10;79.70;;;;;;4975894;28;19945;-96
2022/07/14 00:57:02;;;;;;;;;;;19.90;80.10;;;;;;4975509;28;19950;-96
2022/07/14 00:59:27;;;;;;;;;;;19.90;79.80;;;;;;4975512;28;20321;-96
2022/07/14 01:01:54;;;;;;;;;;;19.80;80.10;;;;;;4975622;28;20072;-96
2022/07/14 01:04:19;;;;;;;;;;;19.80;80.20;;;;;;4975772;28;19984;-96
2022/07/14 01:06:45;;;;;;;;;;;19.80;80.60;;;;;;4975474;28;20456;-95
2022/07/14 01:09:10;;;;;;;;;;;19.90;80.30;;;;;;4975603;28;19949;-95
2022/07/14 01:11:36;;;;;;;;;;;20.00;80.40;;;;;;4975331;28;19952;-96
2022/07/14 01:14:03;;;;;;;;;;;20.00;80.40;;;;;;4975631;28;19984;-96
2022/07/14 01:16:29;;;;;;;;;;;20.10;80.10;;;;;;4975624;28;20052;-95
2022/07/14 01:18:55;;;;;;;;;;;20.10;79.80;;;;;;4975606;28;20406;-96
2022/07/14 01:21:20;;;;;;;;;;;20.20;80.10;;;;;;4975440;28;20360;-96
2022/07/14 01:23:46;;;;;;;;;;;20.10;80.10;;;;;;4975554;28;19941;-96
2022/07/14 01:26:11;;;;;;;;;;;20.10;80.20;;;;;;4975217;28;20350;-96
2022/07/14 01:28:37;;;;;;;;;;;20.20;80.50;;;;;;4975727;28;19944;-96
2022/07/14 01:31:03;;;;;;;;;;;20.20;80.10;;;;;;4975116;28;19942;-96
2022/07/14 01:33:29;;;;;;;;;;;20.10;79.90;;;;;;4957755;28;20001;-95
2022/07/14 01:35:54;;;;;;;;;;;20.00;79.70;;;;;;4975405;28;19950;-96
2022/07/14 01:38:20;;;;;;;;;;;19.80;79.80;;;;;;4975082;28;19951;-96
2022/07/14 01:40:45;;;;;;;;;;;19.60;80.70;;;;;;4957692;28;20411;-96
2022/07/14 01:43:11;;;;;;;;;;;19.60;81.60;;;;;;4974962;28;19969;-96
2022/07/14 01:45:37;;;;;;;;;;;19.60;82.40;;;;;;4975573;28;19976;-95
2022/07/14 01:48:02;;;;;;;;;;;19.60;82.20;;;;;;4975249;28;19944;-95
2022/07/14 01:50:28;;;;;;;;;;;19.50;82.70;;;;;;4975479;28;19942;-96
2022/07/14 01:52:54;;;;;;;;;;;19.40;82.80;;;;;;4975040;28;19964;-96
2022/07/14 01:55:20;;;;;;;;;;;19.30;82.90;;;;;;4975175;28;19943;-95
2022/07/14 01:57:46;;;;;;;;;;;19.40;83.20;;;;;;4975071;28;20369;-95
2022/07/14 02:00:11;;;;;;;;;;;19.40;83.60;;;;;;4975164;28;19961;-96
2022/07/14 02:02:37;;;;;;;;;;;19.40;83.40;;;;;;4974787;28;19964;-96
2022/07/14 02:05:02;;;;;;;;;;;19.40;83.30;;;;;;4975149;28;19979;-96
2022/07/14 02:07:28;;;;;;;;;;;19.40;83.00;;;;;;4974863;28;19995;-95
2022/07/14 02:12:51;;;;;;;;;;;19.50;82.90;;;;;;4952641;28;19945;-96
2022/07/14 02:15:17;;;;;;;;;;;19.50;82.60;;;;;;4957457;28;20322;-96
2022/07/14 02:17:43;;;;;;;;;;;19.60;82.40;;;;;;4974990;28;19991;-95
2022/07/14 02:20:09;;;;;;;;;;;19.60;82.30;;;;;;4974740;28;20088;-96
2022/07/14 02:22:34;;;;;;;;;;;19.60;82.40;;;;;;4978303;28;19959;-95
2022/07/14 02:25:00;;;;;;;;;;;19.60;82.40;;;;;;4978355;28;19949;-96
2022/07/14 02:27:25;;;;;;;;;;;19.70;82.80;;;;;;4978901;28;19943;-96
2022/07/14 02:29:51;;;;;;;;;;;19.80;83.00;;;;;;4978578;28;19943;-96
2022/07/14 02:32:16;;;;;;;;;;;19.80;83.80;;;;;;4978801;28;19949;-96
2022/07/14 02:34:42;;;;;;;;;;;19.70;83.70;;;;;;4978528;28;19944;-95
2022/07/14 02:37:08;;;;;;;;;;;19.70;83.70;;;;;;4978764;28;20038;-96
2022/07/14 02:39:33;;;;;;;;;;;19.80;83.90;;;;;;4978142;28;19992;-96
2022/07/14 02:41:59;;;;;;;;;;;19.70;83.90;;;;;;4978450;28;19974;-96
2022/07/14 02:44:24;;;;;;;;;;;19.70;83.90;;;;;;4978036;28;19944;-96
2022/07/14 02:46:50;;;;;;;;;;;19.70;83.70;;;;;;4978290;28;19948;-96
2022/07/14 02:49:16;;;;;;;;;;;19.70;83.30;;;;;;4977934;28;19969;-96
2022/07/14 02:51:41;;;;;;;;;;;19.70;83.20;;;;;;4960566;28;20403;-96
2022/07/14 02:54:07;;;;;;;;;;;19.70;83.20;;;;;;4978459;28;20293;-95
2022/07/14 02:56:33;;;;;;;;;;;19.70;83.20;;;;;;4977735;28;19997;-96
2022/07/14 02:58:59;;;;;;;;;;;19.70;83.00;;;;;;4977702;28;20397;-95
2022/07/14 03:01:24;;;;;;;;;;;19.70;82.90;;;;;;4978263;28;19966;-96
2022/07/14 03:03:50;;;;;;;;;;;19.80;83.40;;;;;;4977683;28;19951;-96
2022/07/14 03:06:17;;;;;;;;;;;19.90;83.20;;;;;;4977931;28;20073;-96
2022/07/14 03:08:43;;;;;;;;;;;20.00;83.30;;;;;;4977594;28;19941;-96
2022/07/14 03:11:09;;;;;;;;;;;19.90;83.50;;;;;;4978109;28;20007;-96
2022/07/14 03:13:37;;;;;;;;;;;19.80;83.00;;;;;;4977549;28;20482;-96
2022/07/14 03:16:04;;;;;;;;;;;19.80;83.60;;;;;;4977765;28;19975;-95
2022/07/14 03:18:29;;;;;;;;;;;19.60;83.60;;;;;;4977694;28;19942;-95
2022/07/14 03:20:55;;;;;;;;;;;19.70;83.80;;;;;;4977668;28;19944;-96
2022/07/14 03:23:21;;;;;;;;;;;19.50;84.00;;;;;;4977576;28;19962;-96
2022/07/14 03:25:46;;;;;;;;;;;19.50;84.20;;;;;;4977846;28;20378;-96
2022/07/14 03:28:13;;;;;;;;;;;19.40;84.50;;;;;;4959882;28;19942;-95
2022/07/14 03:30:39;;;;;;;;;;;19.30;84.70;;;;;;4977468;28;19949;-96
2022/07/14 03:33:04;;;;;;;;;;;19.30;85.00;;;;;;4976640;28;19940;-96
2022/07/14 03:35:30;;;;;;;;;;;19.30;84.90;;;;;;4977684;28;19947;-95
2022/07/14 03:37:55;;;;;;;;;;;19.30;85.30;;;;;;4959724;28;20469;-96
2022/07/14 03:40:21;;;;;;;;;;;19.40;85.20;;;;;;4977568;28;19938;-96
2022/07/14 03:42:47;;;;;;;;;;;19.50;84.90;;;;;;4977031;28;19969;-96
2022/07/14 03:45:12;;;;;;;;;;;19.70;84.80;;;;;;4977193;28;19944;-95
2022/07/14 03:47:38;;;;;;;;;;;19.80;84.10;;;;;;4977197;28;19936;-96
2022/07/14 03:50:03;;;;;;;;;;;19.80;84.20;;;;;;4959410;28;20042;-96
2022/07/14 03:52:29;;;;;;;;;;;19.80;84.00;;;;;;4975522;28;19948;-95
2022/07/14 03:54:55;;;;;;;;;;;19.70;83.90;;;;;;4977166;28;19948;-95
2022/07/14 03:57:20;;;;;;;;;;;19.40;83.70;;;;;;4983137;23;20024;-96
2022/07/14 03:59:46;;;;;;;;;;;19.40;84.30;;;;;;4977196;28;19937;-96
2022/07/14 04:02:12;;;;;;;;;;;19.40;85.00;;;;;;4976537;28;19966;-95
2022/07/14 04:04:38;;;;;;;;;;;19.50;85.50;;;;;;4977120;28;19937;-96
2022/07/14 04:07:04;;;;;;;;;;;19.60;85.00;;;;;;4976503;28;19979;-96
2022/07/14 04:09:29;;;;;;;;;;;19.70;85.10;;;;;;4977017;28;19965;-96
2022/07/14 04:11:55;;;;;;;;;;;19.80;84.70;;;;;;4976417;28;20393;-95
2022/07/14 04:14:21;;;;;;;;;;;19.70;84.40;;;;;;4976940;28;19997;-96
2022/07/14 04:16:46;;;;;;;;;;;19.70;84.70;;;;;;4976354;28;19983;-95
2022/07/14 04:19:13;;;;;;;;;;;19.70;85.10;;;;;;4976581;28;20033;-95
2022/07/14 04:21:38;;;;;;;;;;;19.70;85.30;;;;;;4976180;28;20557;-96
2022/07/14 04:24:04;;;;;;;;;;;19.80;85.50;;;;;;4976771;28;19947;-96
2022/07/14 04:26:30;;;;;;;;;;;19.80;85.40;;;;;;4976193;28;19950;-96
2022/07/14 04:28:55;;;;;;;;;;;19.90;85.30;;;;;;4976688;28;20403;-96
2022/07/14 04:31:21;;;;;;;;;;;19.90;85.00;;;;;;4958684;28;19949;-96
2022/07/14 04:33:46;;;;;;;;;;;20.00;84.80;;;;;;4976287;28;19939;-96
2022/07/14 04:36:12;;;;;;;;;;;20.10;84.60;;;;;;4976312;28;19946;-95
2022/07/14 04:38:37;;;;;;;;;;;20.10;84.10;;;;;;4976255;28;19954;-95
2022/07/14 04:41:03;;;;;;;;;;;20.00;84.30;;;;;;4976156;28;20417;-95
2022/07/14 04:43:29;;;;;;;;;;;20.00;84.60;;;;;;4976062;28;19966;-96
2022/07/14 04:45:54;;;;;;;;;;;20.20;84.40;;;;;;4976115;28;19949;-95
2022/07/14 04:48:20;;;;;;;;;;;20.30;84.10;;;;;;4976027;28;19942;-96
2022/07/14 04:53:30;;;;;;;;;;;20.30;84.20;;;;;;4975710;28;19988;-96
2022/07/14 04:55:56;;;;;;;;;;;20.40;84.40;;;;;;4975663;28;19941;-96
2022/07/14 04:58:25;;;;;;;;;;;20.60;83.90;;;;;;4975648;28;20022;-96
2022/07/14 05:00:51;;;;;;;;;;;20.80;83.20;;;;;;4975609;28;19943;-96
2022/07/14 05:03:17;;;;;;;;;;;20.80;82.90;;;;;;4975789;28;20402;-96
2022/07/14 05:05:42;;;;;;;;;;;21.00;81.70;;;;;;4975933;28;19951;-96
2022/07/14 05:08:08;;;;;;;;;;;21.20;80.80;;;;;;4976119;28;19941;-96
2022/07/14 05:10:33;;;;;;;;;;;21.40;78.90;;;;;;4975653;28;19949;-96
2022/07/14 05:13:01;;;;;;;;;;;21.70;78.60;;;;;;4974609;28;20522;-95
2022/07/14 05:15:26;;;;;;;;;;;21.80;79.10;;;;;;4975877;28;19946;-95
2022/07/14 05:17:52;;;;;;;;;;;22.00;78.80;;;;;;4975179;28;19944;-96
2022/07/14 05:20:17;;;;;;;;;;;22.10;78.60;;;;;;4975449;28;20317;-96
2022/07/14 05:22:43;;;;;;;;;;;22.20;77.80;;;;;;4973936;28;19964;-96
2022/07/14 05:25:10;;;;;;;;;;;22.30;76.30;;;;;;4975035;28;19950;-96
2022/07/14 05:27:36;;;;;;;;;;;22.40;76.40;;;;;;4978453;28;19945;-96
2022/07/14 05:30:09;;;;;;;;;;;22.50;75.40;;;;;;4978319;28;19950;-96
2022/07/14 05:32:38;;;;;;;;;;;22.60;77.00;;;;;;4975321;28;19942;-96
2022/07/14 05:35:04;;;;;;;;;;;22.70;75.60;;;;;;4977355;28;19939;-96
2022/07/14 05:37:30;;;;;;;;;;;22.80;72.70;;;;;;4976900;28;19946;-96
2022/07/14 05:39:55;;;;;;;;;;;22.90;71.20;;;;;;4977766;28;19966;-96
2022/07/14 05:42:21;;;;;;;;;;;23.10;72.30;;;;;;4976862;28;19974;-96
2022/07/14 05:44:47;;;;;;;;;;;23.20;71.60;;;;;;4978591;28;20267;-96
2022/07/14 05:47:13;;;;;;;;;;;23.30;70.00;;;;;;4961054;28;19961;-96
2022/07/14 05:49:42;;;;;;;;;;;23.50;70.30;;;;;;4978160;28;19937;-96
2022/07/14 05:52:11;;;;;;;;;;;23.70;70.00;;;;;;4977263;28;20007;-96
2022/07/14 05:54:37;;;;;;;;;;;23.80;69.10;;;;;;4979013;28;19960;-96
2022/07/14 05:57:03;;;;;;;;;;;24.00;69.00;;;;;;4983063;28;19941;-96
2022/07/14 06:02:41;;;;;;;;;;;24.10;66.50;;;;;;5091136;23;19988;-96
2022/07/14 06:05:10;;;;;;;;;;;24.30;65.50;;;;;;4962860;29;19958;-96
2022/07/14 06:08:05;;;;;;;;;;;24.50;64.90;;;;;;4947418;29;20445;-96
2022/07/14 06:15:48;;;;;;;;;;;25.00;62.10;;;;;;4485130;26;19963;-97
2022/07/14 06:57:07;;;;;;;;;;;25.80;59.90;;;;;;5099102;23;19967;-97
2022/07/14 06:59:37;;;;;;;;;;;25.90;59.60;;;;;;4984394;28;19946;-96
2022/07/14 07:02:20;;;;;;;;;;;26.00;59.00;;;;;;5000849;28;19977;-96
2022/07/14 07:07:37;;;;;;;;;;;26.20;59.70;;;;;;5001066;28;19959;-96
2022/07/14 07:10:17;;;;;;;;;;;26.30;59.30;;;;;;4969859;28;19959;-97
2022/07/14 07:12:57;;;;;;;;;;;26.40;59.00;;;;;;4986489;28;19950;-96
2022/07/14 07:28:48;;;;;;;;;;;26.80;58.20;;;;;;5336184;23;19965;-96
2022/07/14 07:31:16;;;;;;;;;;;26.90;58.70;;;;;;4999077;28;19936;-97
2022/07/14 07:33:46;;;;;;;;;;;26.90;57.20;;;;;;4981230;28;19952;-97
2022/07/14 07:36:16;;;;;;;;;;;27.00;56.40;;;;;;4999172;28;19935;-96
2022/07/14 07:39:11;;;;;;;;;;;27.00;57.40;;;;;;5000522;28;19949;-97
2022/07/14 07:41:46;;;;;;;;;;;27.00;56.30;;;;;;4983861;28;19986;-96
2022/07/14 07:44:17;;;;;;;;;;;27.00;57.10;;;;;;4980790;28;19977;-96
2022/07/14 07:46:47;;;;;;;;;;;27.10;57.20;;;;;;4998262;28;19935;-96
2022/07/14 07:49:14;;;;;;;;;;;27.10;56.00;;;;;;4980553;28;19950;-96
2022/07/14 07:51:41;;;;;;;;;;;27.00;55.40;;;;;;4979044;28;19942;-96
2022/07/14 07:54:07;;;;;;;;;;;27.00;55.30;;;;;;4978955;28;20467;-96
2022/07/14 07:56:33;;;;;;;;;;;27.00;55.30;;;;;;4978242;28;20003;-96
2022/07/14 07:59:03;;;;;;;;;;;27.10;55.80;;;;;;4981913;28;19937;-96
2022/07/14 08:01:36;;;;;;;;;;;27.20;55.40;;;;;;4998269;28;19948;-96
2022/07/14 08:04:03;;;;;;;;;;;27.30;54.70;;;;;;4967168;28;19988;-96
2022/07/14 08:06:35;;;;;;;;;;;27.30;55.10;;;;;;4981934;28;20001;-97
2022/07/14 08:09:04;;;;;;;;;;;27.50;54.10;;;;;;4999961;28;19966;-96
2022/07/14 08:11:49;;;;;;;;;;;27.60;53.60;;;;;;4997326;28;19988;-96
2022/07/14 08:17:02;;;;;;;;;;;27.70;53.40;;;;;;4997948;28;19956;-96
2022/07/14 08:19:28;;;;;;;;;;;27.70;53.60;;;;;;4980643;28;19945;-96
2022/07/14 08:21:56;;;;;;;;;;;27.70;53.40;;;;;;4980543;28;19958;-96
2022/07/14 08:24:24;;;;;;;;;;;27.70;53.30;;;;;;4998280;28;19984;-96
2022/07/14 08:26:51;;;;;;;;;;;27.80;52.70;;;;;;4996821;28;20023;-96
2022/07/14 08:29:18;;;;;;;;;;;27.90;52.10;;;;;;4997352;28;19972;-96
2022/07/14 08:31:46;;;;;;;;;;;28.10;52.40;;;;;;4982134;28;19931;-96
2022/07/14 08:34:21;;;;;;;;;;;28.20;53.80;;;;;;4999294;28;19946;-96
2022/07/14 08:39:15;;;;;;;;;;;28.20;51.70;;;;;;4780088;27;10554219;-96
2022/07/14 08:41:50;;;;;;;;;;;28.20;50.80;;;;;;5136553;28;20020;-96
2022/07/14 08:44:21;;;;;;;;;;;28.20;55.10;;;;;;5137822;28;19924;-96
2022/07/14 08:46:55;;;;;;;;;;;28.20;54.50;;;;;;5137905;28;20015;-96
2022/07/14 08:49:21;;;;;;;;;;;28.20;54.50;;;;;;5132735;22;19979;-96
2022/07/14 08:51:47;;;;;;;;;;;28.40;52.10;;;;;;5103744;28;19961;-96
2022/07/14 08:54:13;;;;;;;;;;;28.50;51.10;;;;;;5086536;28;19942;-96
2022/07/14 08:56:42;;;;;;;;;;;28.60;52.20;;;;;;5104911;28;20344;-96
2022/07/14 08:59:11;;;;;;;;;;;28.70;50.30;;;;;;5088105;28;19941;-96
2022/07/14 09:01:45;;;;;;;;;;;28.80;51.60;;;;;;5089304;28;19951;-96
2022/07/14 09:04:12;;;;;;;;;;;29.00;49.10;;;;;;5087564;28;19965;-96
2022/07/14 09:06:44;;;;;;;;;;;29.10;50.20;;;;;;5086846;28;19942;-96
2022/07/14 09:09:16;;;;;;;;;;;29.10;48.60;;;;;;5088768;28;19964;-96
2022/07/14 09:12:12;;;;;;;;;;;29.10;48.40;;;;;;5089909;28;19942;-96
2022/07/14 09:17:48;;;;;;;;;;;28.80;52.30;;;;;;5089985;28;19946;-96
2022/07/14 09:20:15;;;;;;;;;;;28.80;50.40;;;;;;5089145;28;19946;-96
2022/07/14 09:22:44;;;;;;;;;;;28.80;52.60;;;;;;5090134;28;19947;-97
2022/07/14 09:25:18;;;;;;;;;;;28.80;53.10;;;;;;5089616;28;19941;-96
2022/07/14 09:27:48;;;;;;;;;;;28.90;53.10;;;;;;5084299;28;19995;-96
2022/07/14 09:30:14;;;;;;;;;;;29.00;52.60;;;;;;5076368;28;19947;-96
2022/07/14 09:32:50;;;;;;;;;;;29.00;50.10;;;;;;5073941;28;19946;-96
2022/07/14 09:35:17;;;;;;;;;;;29.00;49.40;;;;;;5076604;28;19946;-96
2022/07/14 09:37:44;;;;;;;;;;;28.90;48.90;;;;;;5076744;28;19941;-96
2022/07/14 09:40:11;;;;;;;;;;;28.80;48.60;;;;;;5076824;28;19945;-96
2022/07/14 09:42:46;;;;;;;;;;;28.90;49.90;;;;;;5085636;28;19958;-96
2022/07/14 09:45:14;;;;;;;;;;;28.90;50.80;;;;;;5094576;28;19942;-96
2022/07/14 09:47:53;;;;;;;;;;;29.00;47.90;;;;;;5096869;28;19998;-96
2022/07/14 09:50:30;;;;;;;;;;;29.00;47.50;;;;;;5080881;28;19979;-96
2022/07/14 09:52:56;;;;;;;;;;;28.90;46.50;;;;;;5078962;28;19948;-96
2022/07/14 09:55:22;;;;;;;;;;;29.00;50.20;;;;;;5079187;28;19941;-96
2022/07/14 09:57:48;;;;;;;;;;;29.20;48.10;;;;;;5079963;28;20013;-96
2022/07/14 10:00:18;;;;;;;;;;;29.20;47.00;;;;;;5079228;28;19958;-96
2022/07/14 10:02:44;;;;;;;;;;;29.20;47.20;;;;;;5080222;28;19986;-96
2022/07/14 10:05:09;;;;;;;;;;;29.40;47.50;;;;;;5078072;28;19946;-96
2022/07/14 10:07:36;;;;;;;;;;;29.60;43.00;;;;;;5076511;28;20007;-96
2022/07/14 10:10:07;;;;;;;;;;;29.70;44.10;;;;;;5076033;28;19992;-96
2022/07/14 10:12:33;;;;;;;;;;;29.80;42.50;;;;;;5076668;28;19946;-96
2022/07/14 10:15:02;;;;;;;;;;;29.80;43.70;;;;;;5078753;28;19963;-96
2022/07/14 10:17:37;;;;;;;;;;;30.10;44.40;;;;;;5079838;28;19938;-96
2022/07/14 10:20:07;;;;;;;;;;;30.20;39.50;;;;;;5079180;28;20394;-96
2022/07/14 10:22:32;;;;;;;;;;;30.20;40.20;;;;;;5079589;28;19981;-96
2022/07/14 10:24:58;;;;;;;;;;;30.30;41.50;;;;;;5079002;28;19946;-96
2022/07/14 10:27:26;;;;;;;;;;;30.30;41.20;;;;;;5078959;28;20003;-96
2022/07/14 10:29:52;;;;;;;;;;;30.30;41.80;;;;;;5080020;28;19943;-96
2022/07/14 10:32:42;;;;;;;;;;;30.40;42.50;;;;;;5079605;28;19950;-96
2022/07/14 10:35:18;;;;;;;;;;;30.50;38.60;;;;;;5077741;28;19946;-96
2022/07/14 10:37:43;;;;;;;;;;;30.50;39.60;;;;;;5078643;28;19999;-96
2022/07/14 10:40:16;;;;;;;;;;;30.70;38.50;;;;;;5077319;28;19962;-96
2022/07/14 10:43:04;;;;;;;;;;;30.70;39.40;;;;;;5076764;28;20009;-96
2022/07/14 10:45:30;;;;;;;;;;;30.90;36.80;;;;;;5076917;28;19937;-96
2022/07/14 10:47:56;;;;;;;;;;;31.00;35.80;;;;;;5077489;28;20324;-96
2022/07/14 10:50:26;;;;;;;;;;;31.00;36.90;;;;;;5076421;28;20070;-96
2022/07/14 10:52:54;;;;;;;;;;;31.20;38.10;;;;;;5076730;28;19953;-96
2022/07/14 10:55:23;;;;;;;;;;;31.30;37.40;;;;;;5076906;28;19993;-96
2022/07/14 10:58:00;;;;;;;;;;;31.50;37.30;;;;;;5077293;28;19945;-96
2022/07/14 11:00:44;;;;;;;;;;;31.70;34.00;;;;;;5077035;28;19972;-96
2022/07/14 11:03:19;;;;;;;;;;;32.00;35.10;;;;;;5078530;28;19937;-96
2022/07/14 11:06:09;;;;;;;;;;;32.10;34.90;;;;;;5077544;28;19942;-96
2022/07/14 11:08:38;;;;;;;;;;;32.40;36.10;;;;;;5079291;28;19998;-96
2022/07/14 11:11:08;;;;;;;;;;;32.80;34.10;;;;;;5077164;28;20036;-96
2022/07/14 11:13:35;;;;;;;;;;;32.80;33.60;;;;;;5076584;28;20392;-96
2022/07/14 11:16:03;;;;;;;;;;;32.70;33.20;;;;;;5077010;28;19951;-96
2022/07/14 11:18:28;;;;;;;;;;;32.70;33.10;;;;;;5077427;28;19944;-96
2022/07/14 11:21:02;;;;;;;;;;;32.90;32.40;;;;;;5077422;28;19947;-96
2022/07/14 11:23:32;;;;;;;;;;;32.90;24.30;;;;;;5079225;28;19948;-96
2022/07/14 11:26:00;;;;;;;;;;;32.90;24.70;;;;;;5080181;28;19940;-96
2022/07/14 11:28:29;;;;;;;;;;;32.90;26.70;;;;;;5079749;28;19964;-96
2022/07/14 11:31:24;;;;;;;;;;;32.70;28.80;;;;;;5080269;28;19953;-96
2022/07/14 11:36:59;;;;;;;;;;;32.20;27.60;;;;;;5078099;28;19944;-96
2022/07/14 11:39:27;;;;;;;;;;;32.40;28.10;;;;;;5079349;28;20377;-96
2022/07/14 11:42:09;;;;;;;;;;;32.50;28.60;;;;;;5077773;28;19998;-96
2022/07/14 11:44:38;;;;;;;;;;;32.60;31.30;;;;;;5085357;28;19937;-96
2022/07/14 11:47:05;;;;;;;;;;;32.70;28.70;;;;;;5087176;28;19964;-96
2022/07/14 11:49:32;;;;;;;;;;;33.10;27.60;;;;;;5083389;28;19985;-96
2022/07/14 11:51:58;;;;;;;;;;;33.40;27.50;;;;;;5087731;28;19946;-96
2022/07/14 11:54:25;;;;;;;;;;;33.50;26.50;;;;;;5090274;28;19945;-96
2022/07/14 11:57:08;;;;;;;;;;;33.60;28.10;;;;;;5092475;28;19948;-96
2022/07/14 11:59:34;;;;;;;;;;;33.70;30.10;;;;;;5087989;28;20469;-96
2022/07/14 12:02:09;;;;;;;;;;;33.90;26.90;;;;;;5085398;28;19941;-96
2022/07/14 12:04:47;;;;;;;;;;;34.20;28.40;;;;;;5092183;28;20002;-96
2022/07/14 12:07:13;;;;;;;;;;;34.30;30.60;;;;;;5086430;28;19981;-96
2022/07/14 12:09:39;;;;;;;;;;;34.20;28.10;;;;;;5092494;28;19987;-96
2022/07/14 12:12:07;;;;;;;;;;;34.40;27.90;;;;;;5077319;28;20006;-96
2022/07/14 12:14:33;;;;;;;;;;;34.60;28.10;;;;;;5090939;28;19947;-96
2022/07/14 12:16:59;;;;;;;;;;;34.40;27.90;;;;;;5088538;28;20003;-96
2022/07/14 12:19:29;;;;;;;;;;;34.70;27.40;;;;;;5089483;28;20019;-96
2022/07/14 12:31:09;;;;;;;;;;;34.80;28.90;;;;;;5129735;27;20029;-97
2022/07/14 12:49:50;;;;;;;;;;;34.20;28.90;;;;;;6270403;22;2149597;-96
2022/07/14 12:52:20;;;;;;;;;;;35.70;28.90;;;;;;6346931;22;19943;-97
2022/07/14 12:54:50;;;;;;;;;;;36.40;27.40;;;;;;6319230;22;19936;-96
2022/07/14 12:57:24;;;;;;;;;;;37.00;27.90;;;;;;6346981;22;19939;-96
2022/07/14 13:00:17;;;;;;;;;;;37.60;28.40;;;;;;6306361;22;19986;-96
2022/07/14 13:11:13;;;;;;;;;;;38.80;26.30;;;;;;6294559;22;19963;-96
2022/07/14 13:16:24;;;;;;;;;;;38.70;25.70;;;;;;6373307;22;19948;-97
2022/07/14 13:19:09;;;;;;;;;;;38.70;25.70;;;;;;6340488;22;20015;-96
2022/07/14 13:22:01;;;;;;;;;;;38.60;25.20;;;;;;6339386;22;19937;-96
2022/07/14 13:24:43;;;;;;;;;;;38.60;25.20;;;;;;6336106;22;19920;-96
2022/07/14 15:25:23;;;;;;;;;;;41.30;20.10;;;;;;6159341;22;2144168;-97
2022/07/14 15:27:50;;;;;;;;;;;39.70;21.40;;;;;;6249813;23;19976;-96
2022/07/14 15:43:25;;;;;;;;;;;40.80;22.30;;;;;;6214395;23;19962;-96
2022/07/14 15:45:51;;;;;;;;;;;40.20;21.70;;;;;;6184312;23;19991;-96
2022/07/14 15:48:17;;;;;;;;;;;40.40;27.30;;;;;;6180972;23;19942;-96
2022/07/14 15:50:43;;;;;;;;;;;40.00;26.70;;;;;;6182272;23;19986;-96
2022/07/14 15:53:09;;;;;;;;;;;40.10;27.70;;;;;;6183380;23;19947;-96
2022/07/14 15:55:35;;;;;;;;;;;40.00;27.30;;;;;;6211620;23;20260;-96
2022/07/14 15:58:02;;;;;;;;;;;39.80;28.70;;;;;;6187938;23;19970;-96
2022/07/14 16:00:27;;;;;;;;;;;39.10;29.50;;;;;;6188765;23;19938;-96
2022/07/14 16:02:56;;;;;;;;;;;38.20;31.00;;;;;;6187673;23;20015;-96
2022/07/14 16:05:23;;;;;;;;;;;37.70;32.00;;;;;;6187386;23;19962;-96
2022/07/14 16:07:49;;;;;;;;;;;37.30;32.70;;;;;;6189495;23;19944;-96
2022/07/14 16:10:18;;;;;;;;;;;37.10;33.00;;;;;;6188466;23;19947;-96
2022/07/14 16:12:45;;;;;;;;;;;36.80;33.40;;;;;;6192438;23;19981;-96
2022/07/14 16:15:13;;;;;;;;;;;36.60;34.10;;;;;;6218390;23;19983;-97
2022/07/14 16:17:41;;;;;;;;;;;36.60;34.10;;;;;;6188980;23;19945;-96
2022/07/14 16:20:09;;;;;;;;;;;36.50;34.80;;;;;;6187669;23;19928;-96
2022/07/14 16:22:47;;;;;;;;;;;36.50;34.00;;;;;;6212855;23;19947;-96
2022/07/14 16:25:15;;;;;;;;;;;36.60;34.10;;;;;;6186584;23;20003;-96
2022/07/14 16:27:43;;;;;;;;;;;36.50;33.90;;;;;;6186053;23;19940;-96
2022/07/14 16:30:10;;;;;;;;;;;36.60;34.10;;;;;;6185336;23;19996;-96
2022/07/14 16:32:36;;;;;;;;;;;36.30;34.60;;;;;;6184183;23;19945;-96
2022/07/14 16:35:10;;;;;;;;;;;36.10;34.30;;;;;;6184233;23;19981;-96
2022/07/14 16:37:40;;;;;;;;;;;36.00;34.50;;;;;;6184714;23;19940;-96
2022/07/14 16:40:26;;;;;;;;;;;35.70;34.70;;;;;;5152351;27;19979;-96
2022/07/14 16:42:56;;;;;;;;;;;35.70;34.60;;;;;;5141310;28;19959;-96
2022/07/14 16:45:25;;;;;;;;;;;35.70;35.00;;;;;;5133611;28;19984;-97
2022/07/14 16:47:58;;;;;;;;;;;35.60;34.60;;;;;;5133891;28;20023;-96
2022/07/14 16:50:25;;;;;;;;;;;35.50;34.30;;;;;;5133428;28;19973;-96
2022/07/14 16:52:55;;;;;;;;;;;35.40;35.00;;;;;;5132950;28;19945;-96
2022/07/14 16:55:22;;;;;;;;;;;35.30;35.80;;;;;;5133255;28;19924;-96
2022/07/14 16:58:01;;;;;;;;;;;35.20;35.00;;;;;;5134402;28;19947;-97
2022/07/14 17:00:27;;;;;;;;;;;35.20;35.00;;;;;;5135176;28;19987;-97
2022/07/14 17:02:56;;;;;;;;;;;35.10;35.60;;;;;;5134062;28;19928;-96
2022/07/14 17:08:08;;;;;;;;;;;34.70;36.80;;;;;;5131819;28;19967;-96
2022/07/14 17:10:35;;;;;;;;;;;34.60;36.30;;;;;;5129908;28;19946;-96
2022/07/14 17:13:04;;;;;;;;;;;34.50;36.70;;;;;;5130768;27;19951;-96
2022/07/14 17:15:30;;;;;;;;;;;34.50;36.70;;;;;;5128094;27;19987;-96
2022/07/14 17:17:57;;;;;;;;;;;34.30;35.60;;;;;;5129124;28;19925;-97
2022/07/14 17:20:23;;;;;;;;;;;34.00;35.10;;;;;;5126890;28;19946;-96
2022/07/14 17:22:49;;;;;;;;;;;33.80;36.30;;;;;;5127025;28;19958;-96
2022/07/14 17:25:16;;;;;;;;;;;33.70;36.30;;;;;;5122882;28;19949;-96
2022/07/14 17:27:41;;;;;;;;;;;33.60;36.30;;;;;;5121865;28;20010;-96
2022/07/14 17:30:07;;;;;;;;;;;33.40;36.70;;;;;;5122502;28;19966;-96
2022/07/14 17:32:33;;;;;;;;;;;33.30;37.80;;;;;;5124614;28;19943;-96
2022/07/14 17:34:59;;;;;;;;;;;33.20;37.20;;;;;;5124799;28;19945;-96
2022/07/14 17:37:25;;;;;;;;;;;33.20;37.60;;;;;;5108048;28;19942;-96
2022/07/14 17:39:53;;;;;;;;;;;33.20;37.30;;;;;;5125467;28;19976;-96
2022/07/14 17:42:19;;;;;;;;;;;33.10;37.20;;;;;;5127296;28;19955;-96
2022/07/14 17:44:45;;;;;;;;;;;32.90;38.30;;;;;;5126684;28;19994;-96
2022/07/14 17:47:11;;;;;;;;;;;32.70;38.20;;;;;;5126067;28;20006;-96
2022/07/14 17:49:39;;;;;;;;;;;32.50;38.40;;;;;;5123031;28;19939;-96
2022/07/14 17:52:11;;;;;;;;;;;32.40;38.50;;;;;;5113636;28;19948;-96
2022/07/14 17:54:38;;;;;;;;;;;32.30;38.70;;;;;;5111902;28;19944;-96
2022/07/14 17:57:03;;;;;;;;;;;32.20;38.70;;;;;;5112380;28;19964;-96
2022/07/14 17:59:29;;;;;;;;;;;32.00;38.50;;;;;;5110817;28;19975;-96
2022/07/14 18:01:55;;;;;;;;;;;31.80;38.60;;;;;;5112064;28;19942;-96
2022/07/14 18:04:21;;;;;;;;;;;31.70;38.70;;;;;;5111275;28;19940;-96
2022/07/14 18:06:51;;;;;;;;;;;31.60;39.50;;;;;;5112682;28;19941;-96
2022/07/14 18:09:17;;;;;;;;;;;31.50;39.30;;;;;;5112516;28;20035;-96
2022/07/14 18:11:44;;;;;;;;;;;31.30;39.80;;;;;;5112518;28;20019;-96
2022/07/14 18:14:10;;;;;;;;;;;31.20;40.20;;;;;;5114286;28;19945;-96
2022/07/14 18:16:39;;;;;;;;;;;31.00;40.60;;;;;;5113187;28;19944;-96
2022/07/14 18:19:05;;;;;;;;;;;30.80;41.10;;;;;;5113599;28;20015;-96
2022/07/14 18:21:33;;;;;;;;;;;30.70;41.60;;;;;;5113575;28;20007;-96
2022/07/14 18:23:59;;;;;;;;;;;30.70;41.80;;;;;;5113099;28;19947;-96
2022/07/14 18:26:25;;;;;;;;;;;30.50;42.20;;;;;;5112595;28;19993;-96
2022/07/14 18:28:51;;;;;;;;;;;30.40;42.00;;;;;;5112133;28;19987;-97
2022/07/14 18:31:19;;;;;;;;;;;30.30;42.80;;;;;;5111537;28;19991;-96
2022/07/14 18:33:46;;;;;;;;;;;30.20;43.00;;;;;;5109858;28;19938;-96